Time;durP1;ratioP1;P1;durP2;ratioP2;P2;SDS_P1;SDS_P2;PMS_P1;PMS_P2;Temp;Humidity;BMP_temperature;BMP_pressure;BME280_temperature;BME280_humidity;BME280_pressure;Samples;Min_cycle;Max_cycle;Signal;HPM_P1;HPM_P2
2023/03/23 00:01:20;;;;;;;6.32;2.85;;;;;;;10.03;100.00;100145.78;4919141;29;20098;-90
2023/03/23 00:03:51;;;;;;;8.43;3.37;;;;;;;10.06;100.00;100165.84;4902887;29;20028;-90
2023/03/23 00:06:17;;;;;;;6.93;2.90;;;;;;;10.05;100.00;100173.03;4920467;29;20830;-89
2023/03/23 00:08:49;;;;;;;5.55;3.03;;;;;;;10.09;100.00;100178.69;4918963;29;20392;-89
2023/03/23 00:11:31;;;;;;;6.60;3.10;;;;;;;10.10;100.00;100161.56;4911223;29;20077;-90
2023/03/23 00:14:00;;;;;;;4.88;2.60;;;;;;;10.08;100.00;100144.94;4905590;29;20029;-91
2023/03/23 00:16:31;;;;;;;4.70;3.05;;;;;;;10.09;100.00;100149.25;4889216;29;20044;-90
2023/03/23 00:19:03;;;;;;;3.97;3.10;;;;;;;10.05;100.00;100170.38;4911139;29;20500;-90
2023/03/23 00:21:35;;;;;;;7.60;3.42;;;;;;;10.09;100.00;100179.47;4918252;29;20404;-90
2023/03/23 00:24:09;;;;;;;4.50;2.87;;;;;;;10.15;100.00;100159.66;4918003;29;20039;-90
2023/03/23 00:26:40;;;;;;;4.30;2.83;;;;;;;10.12;100.00;100138.00;4918153;29;20291;-90
2023/03/23 00:29:07;;;;;;;6.55;2.80;;;;;;;10.13;100.00;100143.06;4916017;29;20031;-90
2023/03/23 00:31:35;;;;;;;5.97;2.95;;;;;;;10.14;100.00;100162.59;4917896;29;20115;-90
2023/03/23 00:34:01;;;;;;;4.57;3.20;;;;;;;10.07;100.00;100165.56;4901021;29;20062;-90
2023/03/23 00:36:27;;;;;;;10.00;2.97;;;;;;;10.07;100.00;100156.72;4917734;29;20150;-89
2023/03/23 00:38:52;;;;;;;4.20;3.03;;;;;;;10.08;100.00;100147.63;4917116;29;20024;-89
2023/03/23 00:41:21;;;;;;;6.03;3.00;;;;;;;10.08;100.00;100159.13;4932007;29;20665;-90
2023/03/23 00:43:48;;;;;;;6.38;3.10;;;;;;;10.14;100.00;100168.75;4926239;29;20028;-90
2023/03/23 00:46:14;;;;;;;5.23;2.90;;;;;;;10.17;100.00;100158.59;4918565;29;20489;-90
2023/03/23 00:48:44;;;;;;;6.13;3.07;;;;;;;10.12;100.00;100154.06;4934429;28;20296;-90
2023/03/23 00:51:11;;;;;;;7.43;2.60;;;;;;;10.17;100.00;100147.88;4921622;29;20028;-90
2023/03/23 00:53:36;;;;;;;5.78;3.20;;;;;;;10.25;100.00;100144.63;4918536;29;20038;-90
2023/03/23 00:56:02;;;;;;;5.57;3.03;;;;;;;10.26;100.00;100148.91;4918933;29;20024;-90
2023/03/23 00:58:27;;;;;;;6.37;2.90;;;;;;;10.20;100.00;100128.59;4918520;29;20032;-90
2023/03/23 01:00:53;;;;;;;4.67;2.87;;;;;;;10.20;100.00;100155.38;4916537;29;20063;-90
2023/03/23 01:03:18;;;;;;;4.50;2.92;;;;;;;10.15;100.00;100153.50;4917869;29;20024;-90
2023/03/23 01:05:46;;;;;;;5.23;3.00;;;;;;;10.07;100.00;100140.66;4917324;29;20028;-90
2023/03/23 01:08:14;;;;;;;5.70;3.10;;;;;;;9.94;100.00;100123.28;4900362;29;20032;-89
2023/03/23 01:10:39;;;;;;;6.03;3.00;;;;;;;10.00;100.00;100133.72;4915623;29;20040;-90
2023/03/23 01:13:07;;;;;;;3.90;3.03;;;;;;;9.89;100.00;100123.28;4915863;29;20095;-89
2023/03/23 01:15:32;;;;;;;8.05;3.45;;;;;;;9.89;100.00;100129.47;4916365;29;20115;-89
2023/03/23 01:17:58;;;;;;;4.67;3.60;;;;;;;9.89;100.00;100108.06;4916857;29;20488;-89
2023/03/23 01:20:26;;;;;;;4.22;3.25;;;;;;;9.92;100.00;100088.78;4915138;29;20044;-89
2023/03/23 01:22:52;;;;;;;5.30;3.53;;;;;;;9.90;100.00;100087.44;4917172;29;20032;-89
2023/03/23 01:25:18;;;;;;;7.57;3.57;;;;;;;9.90;100.00;100074.88;4917138;29;20288;-89
2023/03/23 01:27:44;;;;;;;6.82;3.22;;;;;;;9.89;100.00;100094.69;4917003;29;20611;-90
2023/03/23 01:30:11;;;;;;;5.10;3.13;;;;;;;9.94;100.00;100094.66;4916916;29;20095;-89
2023/03/23 01:32:37;;;;;;;7.37;3.53;;;;;;;9.89;100.00;100075.94;4923027;29;20036;-89
2023/03/23 01:35:02;;;;;;;5.38;3.47;;;;;;;9.96;100.00;100089.81;4920530;29;20039;-90
2023/03/23 01:37:28;;;;;;;7.53;3.60;;;;;;;9.94;100.00;100083.97;4921707;29;20088;-90
2023/03/23 01:39:55;;;;;;;5.65;3.30;;;;;;;10.00;100.00;100093.56;4918596;29;20571;-90
2023/03/23 01:42:25;;;;;;;4.50;3.25;;;;;;;10.03;100.00;100099.44;4921148;29;20121;-89
2023/03/23 01:44:50;;;;;;;6.32;3.65;;;;;;;10.09;100.00;100107.19;4925867;29;20038;-89
2023/03/23 01:47:23;;;;;;;5.13;3.57;;;;;;;10.08;100.00;100092.22;4917385;29;20127;-90
2023/03/23 01:49:50;;;;;;;7.53;3.60;;;;;;;10.11;100.00;100089.00;4914982;29;20547;-89
2023/03/23 01:52:36;;;;;;;4.10;3.55;;;;;;;10.25;100.00;100104.47;4916924;29;20052;-90
2023/03/23 01:55:02;;;;;;;7.77;3.27;;;;;;;10.29;100.00;100097.50;4916327;29;20063;-89
2023/03/23 01:57:29;;;;;;;5.10;3.17;;;;;;;10.23;100.00;100088.69;4899867;29;20316;-89
2023/03/23 01:59:58;;;;;;;4.75;3.60;;;;;;;10.27;100.00;100084.41;4915736;29;20034;-90
2023/03/23 02:02:24;;;;;;;7.63;3.53;;;;;;;10.36;100.00;100083.81;4917495;29;20036;-90
2023/03/23 02:04:51;;;;;;;5.78;4.22;;;;;;;10.41;100.00;100068.53;4917182;29;20028;-90
2023/03/23 02:07:20;;;;;;;4.47;3.10;;;;;;;10.49;100.00;100069.06;4943632;28;20060;-90
2023/03/23 02:09:45;;;;;;;4.70;3.42;;;;;;;10.50;100.00;100059.94;4926149;29;20043;-89
2023/03/23 02:12:11;;;;;;;5.80;3.43;;;;;;;10.51;100.00;100069.59;4930656;29;20020;-90
2023/03/23 02:14:36;;;;;;;5.27;3.47;;;;;;;10.47;100.00;100052.47;4942223;29;20024;-90
2023/03/23 02:17:10;;;;;;;7.43;3.20;;;;;;;10.49;100.00;100051.13;4932893;29;20451;-90
2023/03/23 02:20:13;;;;;;;5.57;3.40;;;;;;;10.58;100.00;100054.03;4930301;29;20024;-89
2023/03/23 02:22:48;;;;;;;5.53;3.40;;;;;;;10.58;100.00;100062.06;4929504;29;20075;-88
2023/03/23 02:25:33;;;;;;;5.23;3.77;;;;;;;10.54;100.00;100047.63;4935486;29;20363;-85
2023/03/23 02:28:36;;;;;;;4.78;3.30;;;;;;;10.54;100.00;100055.66;4923419;29;20032;-89
2023/03/23 02:31:23;;;;;;;3.50;3.20;;;;;;;10.52;100.00;100060.47;4921149;29;20032;-89
2023/03/23 02:34:00;;;;;;;5.00;3.60;;;;;;;10.52;100.00;100055.13;4923239;29;20032;-89
2023/03/23 02:36:50;;;;;;;4.95;3.47;;;;;;;10.51;100.00;100054.31;4923439;29;20087;-89
2023/03/23 02:39:29;;;;;;;6.43;3.50;;;;;;;10.49;100.00;100034.22;4920155;29;20028;-89
2023/03/23 02:42:02;;;;;;;4.47;3.05;;;;;;;10.48;100.00;100030.78;4903754;29;20108;-89
2023/03/23 02:44:29;;;;;;;6.13;3.03;;;;;;;10.42;100.00;100018.47;4888081;29;20050;-89
2023/03/23 02:46:57;;;;;;;4.38;3.00;;;;;;;10.46;100.00;100035.59;4908152;29;20075;-89
2023/03/23 02:49:25;;;;;;;4.55;2.88;;;;;;;10.50;100.00;100039.31;4912945;29;20028;-89
2023/03/23 02:51:52;;;;;;;5.05;2.80;;;;;;;10.51;100.00;100040.91;4941604;29;20052;-90
2023/03/23 02:54:19;;;;;;;5.38;2.90;;;;;;;10.50;100.00;100047.34;4934648;29;20035;-89
2023/03/23 02:56:46;;;;;;;3.85;3.10;;;;;;;10.53;100.00;100054.81;4945092;28;20020;-89
2023/03/23 02:59:12;;;;;;;5.30;2.70;;;;;;;10.53;100.00;100052.16;4936459;29;20396;-90
2023/03/23 03:01:37;;;;;;;3.87;2.90;;;;;;;10.52;100.00;100055.13;4923986;29;20303;-89
2023/03/23 03:04:12;;;;;;;3.73;2.70;;;;;;;10.54;100.00;100044.94;4907010;29;20040;-89
2023/03/23 03:06:43;;;;;;;4.38;3.03;;;;;;;10.56;100.00;100045.47;4923808;29;20028;-90
2023/03/23 03:09:27;;;;;;;4.20;2.80;;;;;;;10.50;100.00;100036.63;4923893;29;20028;-89
2023/03/23 03:11:58;;;;;;;4.27;2.90;;;;;;;10.56;100.00;100046.25;4906347;29;20033;-90
2023/03/23 03:14:29;;;;;;;4.20;2.80;;;;;;;10.59;100.00;100045.69;4910235;29;20283;-89
2023/03/23 03:17:12;;;;;;;5.53;2.97;;;;;;;10.57;100.00;100055.09;4904695;29;20075;-89
2023/03/23 03:19:45;;;;;;;3.95;2.85;;;;;;;10.61;100.00;100050.78;4910392;29;20032;-89
2023/03/23 03:22:12;;;;;;;5.70;2.60;;;;;;;10.62;100.00;100043.53;4889481;29;20039;-90
2023/03/23 03:24:38;;;;;;;7.25;3.50;;;;;;;10.57;100.00;100039.03;4924397;29;20043;-89
2023/03/23 03:27:06;;;;;;;4.93;2.83;;;;;;;10.59;100.00;100058.31;4921805;29;20032;-89
2023/03/23 03:29:41;;;;;;;3.50;2.60;;;;;;;10.53;100.00;100052.16;4921605;29;20094;-90
2023/03/23 03:32:12;;;;;;;3.63;2.57;;;;;;;10.56;100.00;100046.25;4932604;29;20043;-90
2023/03/23 03:34:38;;;;;;;5.33;2.70;;;;;;;10.54;100.00;100047.63;4912246;29;20307;-89
2023/03/23 03:37:05;;;;;;;4.20;2.72;;;;;;;10.57;100.00;100055.09;4928402;29;20097;-89
2023/03/23 03:39:34;;;;;;;5.18;2.95;;;;;;;10.50;100.00;100035.84;4941339;28;20024;-89
2023/03/23 03:42:00;;;;;;;4.55;2.88;;;;;;;10.58;100.00;100054.03;4926428;28;20040;-89
2023/03/23 03:44:26;;;;;;;6.03;3.03;;;;;;;10.56;100.00;100048.13;4940124;29;20023;-91
2023/03/23 03:46:51;;;;;;;6.43;2.67;;;;;;;10.59;100.00;100055.63;4941084;28;20008;-90
2023/03/23 03:49:16;;;;;;;7.37;2.83;;;;;;;10.56;100.00;100045.47;4940277;28;20079;-90
2023/03/23 03:51:42;;;;;;;6.30;2.70;;;;;;;10.58;100.00;100046.78;4941421;28;20096;-89
2023/03/23 03:54:07;;;;;;;3.25;2.28;;;;;;;10.59;100.00;100053.72;4941564;28;20027;-89
2023/03/23 03:56:35;;;;;;;6.30;2.77;;;;;;;10.56;100.00;100040.09;4941211;28;20016;-90
2023/03/23 03:59:02;;;;;;;9.20;2.58;;;;;;;10.64;100.00;100054.78;4939147;28;20088;-90
2023/03/23 04:01:28;;;;;;;4.13;2.13;;;;;;;10.61;100.00;100058.81;4940687;28;20032;-89
2023/03/23 04:03:53;;;;;;;2.95;1.92;;;;;;;10.63;100.00;100070.03;4942010;28;20108;-89
2023/03/23 04:06:19;;;;;;;3.60;2.27;;;;;;;10.62;100.00;100060.41;4942011;28;20032;-89
2023/03/23 04:08:45;;;;;;;5.27;2.10;;;;;;;10.56;100.00;100056.97;4939101;28;20048;-90
2023/03/23 04:11:14;;;;;;;4.18;1.95;;;;;;;10.66;100.00;100066.03;4924790;29;20068;-89
2023/03/23 04:13:41;;;;;;;7.07;1.92;;;;;;;10.69;100.00;100066.28;4921521;29;20067;-90
2023/03/23 04:16:08;;;;;;;5.63;2.15;;;;;;;10.72;100.00;100068.41;4937507;29;20031;-90
2023/03/23 04:18:34;;;;;;;6.45;1.70;;;;;;;10.64;100.00;100063.63;4930851;29;20042;-91
2023/03/23 04:21:01;;;;;;;7.30;1.92;;;;;;;10.69;100.00;100074.31;4934719;29;20024;-89
2023/03/23 04:23:30;;;;;;;8.57;1.97;;;;;;;10.71;100.00;100074.84;4926067;28;20392;-91
2023/03/23 04:25:56;;;;;;;10.45;1.88;;;;;;;10.71;100.00;100074.84;4921846;29;20032;-90
2023/03/23 04:28:23;;;;;;;6.40;2.00;;;;;;;10.68;100.00;100062.00;4919019;29;20086;-90
2023/03/23 04:30:52;;;;;;;6.03;1.80;;;;;;;10.76;100.00;100082.03;4919525;29;20028;-90
2023/03/23 04:33:18;;;;;;;8.38;1.55;;;;;;;10.69;100.00;100078.84;4921720;29;20036;-89
2023/03/23 04:35:45;;;;;;;8.20;2.33;;;;;;;10.68;100.00;100096.03;4919378;29;20384;-91
2023/03/23 04:38:11;;;;;;;7.87;1.63;;;;;;;10.74;100.00;100094.91;4918875;29;20028;-90
2023/03/23 04:40:41;;;;;;;9.20;1.77;;;;;;;10.77;100.00;100090.91;4919104;29;20304;-89
2023/03/23 04:43:07;;;;;;;8.38;1.75;;;;;;;10.77;100.00;100088.22;4918981;29;20065;-89
2023/03/23 04:45:37;;;;;;;11.88;1.40;;;;;;;10.72;100.00;100086.34;4919392;29;20047;-90
2023/03/23 04:48:04;;;;;;;5.63;1.88;;;;;;;10.75;100.00;100093.84;4898408;29;20099;-89
2023/03/23 04:50:32;;;;;;;7.25;1.73;;;;;;;10.77;100.00;100090.91;4916177;29;20040;-90
2023/03/23 04:53:03;;;;;;;9.65;1.52;;;;;;;10.79;100.00;100104.78;4921532;29;20487;-90
2023/03/23 04:55:36;;;;;;;7.13;1.42;;;;;;;10.79;100.00;100099.44;4921236;29;20402;-90
2023/03/23 04:58:07;;;;;;;8.63;1.77;;;;;;;10.76;100.00;100103.47;4919094;29;20092;-90
2023/03/23 05:00:35;;;;;;;9.68;1.75;;;;;;;10.75;100.00;100108.06;4935637;29;20035;-89
2023/03/23 05:03:01;;;;;;;8.95;2.17;;;;;;;10.73;100.00;100096.81;4939840;28;20027;-90
2023/03/23 05:05:27;;;;;;;8.53;1.57;;;;;;;10.69;100.00;100101.09;4940248;28;20020;-90
2023/03/23 05:07:55;;;;;;;6.72;1.50;;;;;;;10.69;100.00;100100.28;4940210;28;20087;-90
2023/03/23 05:10:20;;;;;;;4.80;1.40;;;;;;;10.61;100.00;100096.31;4938772;28;20032;-89
2023/03/23 05:12:46;;;;;;;4.05;1.30;;;;;;;10.58;100.00;100092.31;4939284;29;20023;-89
2023/03/23 05:15:14;;;;;;;5.77;1.27;;;;;;;10.64;100.00;100101.13;4937768;28;20047;-89
2023/03/23 05:17:43;;;;;;;7.38;1.67;;;;;;;10.63;100.00;100096.06;4921112;29;20027;-90
2023/03/23 05:20:12;;;;;;;7.47;2.00;;;;;;;10.60;100.00;100102.75;4929666;29;20038;-89
2023/03/23 05:22:38;;;;;;;9.25;1.63;;;;;;;10.59;100.00;100095.81;4938340;28;20027;-89
2023/03/23 05:25:04;;;;;;;7.03;1.57;;;;;;;10.65;100.00;100094.69;4909925;29;20036;-89
2023/03/23 05:27:32;;;;;;;3.88;1.33;;;;;;;10.67;100.00;100105.94;4917183;29;20038;-89
2023/03/23 05:29:58;;;;;;;8.63;1.50;;;;;;;10.63;100.00;100088.00;4916066;29;20107;-91
2023/03/23 05:32:30;;;;;;;6.85;1.27;;;;;;;10.66;100.00;100115.03;4918985;29;20107;-90
2023/03/23 05:34:57;;;;;;;5.47;1.40;;;;;;;10.71;100.00;100116.91;4918622;29;20024;-90
2023/03/23 05:37:24;;;;;;;5.20;1.50;;;;;;;10.66;100.00;100100.88;4919226;29;20028;-89
2023/03/23 05:39:53;;;;;;;7.65;1.70;;;;;;;10.66;100.00;100108.91;4915849;29;20043;-89
2023/03/23 05:42:20;;;;;;;5.87;1.90;;;;;;;10.59;100.00;100098.50;4923087;29;20032;-90
2023/03/23 05:44:47;;;;;;;5.68;1.48;;;;;;;10.59;100.00;100101.16;4908520;29;20031;-89
2023/03/23 05:47:13;;;;;;;8.50;1.45;;;;;;;10.54;100.00;100095.81;4923885;29;20146;-89
2023/03/23 05:49:38;;;;;;;9.98;1.63;;;;;;;10.49;100.00;100104.69;4928181;29;20016;-89
2023/03/23 05:52:03;;;;;;;4.63;1.60;;;;;;;10.48;100.00;100107.63;4936992;29;20035;-88
2023/03/23 05:54:29;;;;;;;11.30;1.73;;;;;;;10.41;100.00;100103.34;4938522;28;20031;-89
2023/03/23 05:56:54;;;;;;;6.60;1.90;;;;;;;10.44;100.00;100110.84;4932385;29;20036;-89
2023/03/23 05:59:20;;;;;;;4.20;1.58;;;;;;;10.36;100.00;100091.84;4919190;29;20051;-89
2023/03/23 06:01:45;;;;;;;3.67;1.43;;;;;;;10.42;100.00;100104.97;4903468;29;20032;-90
2023/03/23 06:04:13;;;;;;;7.20;1.60;;;;;;;10.40;100.00;100109.81;4920375;29;20048;-89
2023/03/23 06:06:40;;;;;;;7.18;1.40;;;;;;;10.39;100.00;100112.75;4919626;29;20064;-90
2023/03/23 06:09:07;;;;;;;5.57;1.90;;;;;;;10.39;100.00;100099.38;4911013;29;20060;-90
2023/03/23 06:11:33;;;;;;;4.32;1.55;;;;;;;10.39;100.00;100099.38;4920302;29;20028;-89
2023/03/23 06:13:59;;;;;;;8.05;1.70;;;;;;;10.45;100.00;100109.78;4925329;29;20035;-90
2023/03/23 06:16:25;;;;;;;6.32;1.63;;;;;;;10.45;100.00;100107.09;4923106;29;20471;-90
2023/03/23 06:18:51;;;;;;;9.67;1.73;;;;;;;10.47;100.00;100116.75;4921042;29;20092;-91
2023/03/23 06:21:18;;;;;;;5.10;1.70;;;;;;;10.53;100.00;100129.06;4927422;29;20063;-91
2023/03/23 06:23:45;;;;;;;7.47;1.50;;;;;;;10.63;100.00;100137.03;4934539;28;20067;-92
2023/03/23 06:26:14;;;;;;;6.03;1.48;;;;;;;10.68;100.00;100145.06;4907646;29;20024;-91
2023/03/23 06:28:40;;;;;;;10.63;2.15;;;;;;;10.64;100.00;100140.53;4909175;29;20025;-91
2023/03/23 06:56:04;;;;;;;7.27;1.70;;;;;;;10.81;100.00;100180.34;4936967;29;20316;-94
2023/03/23 06:58:33;;;;;;;8.13;1.50;;;;;;;10.82;100.00;100190.81;4925108;29;20025;-95
2023/03/23 07:00:58;;;;;;;6.13;1.40;;;;;;;10.79;100.00;100172.59;4942347;29;20096;-96
2023/03/23 07:03:26;;;;;;;5.00;1.33;;;;;;;10.84;100.00;100201.25;4941490;28;20008;-95
2023/03/23 07:05:51;;;;;;;12.52;1.52;;;;;;;10.84;100.00;100210.13;4944250;28;20067;-96
2023/03/23 07:08:16;;;;;;;4.47;1.23;;;;;;;10.82;100.00;100201.53;4943863;28;20040;-94
2023/03/23 07:10:42;;;;;;;6.33;1.70;;;;;;;10.75;100.00;100199.16;4943812;28;20300;-95
2023/03/23 07:13:07;;;;;;;8.67;2.00;;;;;;;10.64;100.00;100202.16;4936023;29;20044;-93
2023/03/23 07:15:33;;;;;;;10.73;1.90;;;;;;;10.40;100.00;100200.88;4936255;29;20060;-93
2023/03/23 07:17:59;;;;;;;12.18;1.98;;;;;;;10.22;100.00;100217.50;4931225;29;20008;-91
2023/03/23 07:20:25;;;;;;;8.60;2.20;;;;;;;10.06;100.00;100228.19;4932435;29;20028;-94
2023/03/23 07:22:50;;;;;;;8.27;2.13;;;;;;;9.96;100.00;100217.50;4933805;29;20059;-94
2023/03/23 07:25:17;;;;;;;6.67;1.57;;;;;;;9.81;100.00;100224.47;4935277;29;20024;-95
2023/03/23 07:27:45;;;;;;;12.93;1.67;;;;;;;9.75;100.00;100232.75;4933087;29;20032;-93
2023/03/23 07:30:12;;;;;;;5.28;1.70;;;;;;;9.65;100.00;100220.19;4932258;29;20032;-93
2023/03/23 07:32:37;;;;;;;10.60;1.80;;;;;;;9.57;100.00;100212.66;4935025;29;20035;-92
2023/03/23 07:37:32;;;;;;;11.02;1.77;;;;;;;9.61;100.00;100256.53;4933392;29;20040;-92
2023/03/23 07:39:57;;;;;;;9.00;1.87;;;;;;;9.57;100.00;100253.59;4935254;29;20060;-91
2023/03/23 07:42:23;;;;;;;4.93;1.67;;;;;;;9.39;100.00;100244.19;4986469;23;20319;-91
2023/03/23 07:44:49;;;;;;;16.80;1.70;;;;;;;9.27;100.00;100240.97;4951316;29;20036;-91
2023/03/23 07:47:23;;;;;;;7.65;1.30;;;;;;;8.97;100.00;100199.69;4919496;29;20063;-89
2023/03/23 07:49:48;;;;;;;5.80;1.35;;;;;;;8.91;100.00;100206.88;4941140;29;20039;-92
2023/03/23 07:52:14;;;;;;;3.23;0.80;;;;;;;8.93;100.00;100223.47;4919095;29;20051;-91
2023/03/23 07:54:40;;;;;;;6.18;1.00;;;;;;;8.87;100.00;100229.84;4936956;29;20036;-91
2023/03/23 07:57:06;;;;;;;4.60;1.10;;;;;;;8.83;100.00;100226.91;4931411;29;20026;-91
2023/03/23 07:59:31;;;;;;;6.37;1.30;;;;;;;8.82;100.00;100225.28;4928304;29;20036;-91
2023/03/23 08:01:58;;;;;;;4.13;1.20;;;;;;;8.91;100.00;100245.13;4901094;29;20469;-92
2023/03/23 08:04:23;;;;;;;6.10;1.37;;;;;;;8.89;100.00;100241.91;4902423;29;20106;-91
2023/03/23 08:06:49;;;;;;;6.25;1.40;;;;;;;8.97;100.00;100255.81;4915169;29;20095;-91
2023/03/23 08:14:27;;;;;;;4.20;1.20;;;;;;;8.75;100.00;100254.13;5267130;23;20360;-90
2023/03/23 08:16:55;;;;;;;6.03;1.13;;;;;;;8.52;100.00;100237.44;4936715;29;20126;-91
2023/03/23 08:19:20;;;;;;;6.68;0.98;;;;;;;8.56;100.00;100251.88;4926020;29;20028;-91
2023/03/23 08:21:45;;;;;;;3.13;0.90;;;;;;;8.80;100.00;100280.84;4919872;29;20072;-90
2023/03/23 08:24:11;;;;;;;7.07;1.00;;;;;;;8.92;100.00;100276.13;4938087;29;20023;-93
2023/03/23 08:26:37;;;;;;;4.03;0.87;;;;;;;9.07;100.00;100277.25;4933621;29;20024;-91
2023/03/23 08:29:05;;;;;;;4.70;1.00;;;;;;;9.11;100.00;100281.00;4929376;29;20028;-91
2023/03/23 08:31:33;;;;;;;2.92;0.90;;;;;;;9.08;100.00;100286.88;4911969;29;20107;-92
2023/03/23 08:33:58;;;;;;;3.15;0.77;;;;;;;9.00;100.00;100284.69;4923835;29;20039;-90
2023/03/23 08:36:23;;;;;;;5.83;0.80;;;;;;;8.89;100.00;100263.28;4924152;29;20029;-90
2023/03/23 08:38:52;;;;;;;2.67;0.60;;;;;;;9.03;100.00;100278.81;4911765;29;20028;-91
2023/03/23 08:41:17;;;;;;;3.33;0.70;;;;;;;9.06;100.00;100272.97;4912103;29;20036;-91
2023/03/23 08:43:43;;;;;;;2.60;0.90;;;;;;;9.09;100.00;100275.91;4930348;29;20487;-91
2023/03/23 08:46:10;;;;;;;4.57;0.95;;;;;;;9.16;100.00;100270.31;4936720;28;20016;-91
2023/03/23 08:48:38;;;;;;;3.55;0.95;;;;;;;9.34;100.00;100279.75;4941996;28;20023;-90
2023/03/23 08:51:04;;;;;;;2.42;1.02;;;;;;;9.50;100.00;100274.44;4943627;28;20030;-91
2023/03/23 08:53:30;;;;;;;5.77;1.10;;;;;;;9.52;100.00;100273.09;4959959;28;20076;-91
2023/03/23 08:55:56;;;;;;;4.38;1.00;;;;;;;9.50;100.00;100267.22;4951809;29;20020;-91
2023/03/23 08:58:22;;;;;;;2.45;1.00;;;;;;;9.60;100.00;100284.34;4946675;29;20054;-91
2023/03/23 09:03:23;;;;;;;5.87;1.10;;;;;;;9.63;100.00;100275.81;5551712;23;20802;-92
2023/03/23 09:05:48;;;;;;;2.10;0.70;;;;;;;9.80;100.00;100289.75;4926150;29;20027;-91
2023/03/23 09:08:15;;;;;;;1.60;0.73;;;;;;;9.95;100.00;100296.97;4943046;29;20107;-90
2023/03/23 09:10:40;;;;;;;6.18;1.30;;;;;;;9.77;100.00;100282.25;4927029;29;20047;-90
2023/03/23 09:13:06;;;;;;;5.27;0.83;;;;;;;9.81;100.00;100283.34;4924567;29;20375;-90
2023/03/23 09:15:32;;;;;;;3.07;0.90;;;;;;;9.93;100.00;100269.69;4927462;29;20036;-89
2023/03/23 09:18:00;;;;;;;3.70;1.00;;;;;;;10.14;100.00;100270.50;4938873;28;20020;-90
2023/03/23 09:20:27;;;;;;;5.57;1.20;;;;;;;10.37;100.00;100291.63;4930537;29;20498;-91
2023/03/23 09:22:55;;;;;;;4.78;0.90;;;;;;;10.46;100.00;100292.75;4929014;29;20032;-91
2023/03/23 09:25:24;;;;;;;5.68;0.93;;;;;;;10.52;100.00;100290.84;4925432;29;20051;-91
2023/03/23 09:27:53;;;;;;;4.20;0.93;;;;;;;10.57;100.00;100306.91;4924752;29;20079;-91
2023/03/23 09:30:20;;;;;;;6.97;1.47;;;;;;;10.42;100.00;100295.13;4929874;29;20483;-91
2023/03/23 09:32:47;;;;;;;4.38;1.25;;;;;;;10.34;100.00;100295.66;4923610;29;20036;-91
2023/03/23 09:35:16;;;;;;;5.07;0.77;;;;;;;10.27;100.00;100282.53;4907060;29;20032;-92
2023/03/23 09:37:45;;;;;;;5.70;0.90;;;;;;;10.19;100.00;100296.47;4921494;29;20028;-92
2023/03/23 09:42:57;;;;;;;6.57;1.00;;;;;;;9.98;100.00;100298.34;4968516;23;20278;-91
2023/03/23 09:45:49;;;;;;;2.23;0.70;;;;;;;10.08;100.00;100306.34;4921765;29;20523;-91
2023/03/23 09:48:24;;;;;;;3.43;0.87;;;;;;;10.11;100.00;100313.84;4923664;29;20284;-91
2023/03/23 10:18:37;;;;;;;3.55;1.00;;;;;;;9.82;100.00;100274.25;4922774;29;20047;-91
2023/03/23 10:21:32;;;;;;;5.50;1.10;;;;;;;10.19;100.00;100315.19;5036019;23;20049;-92
2023/03/23 10:24:01;;;;;;;5.75;1.15;;;;;;;10.26;100.00;100315.75;4925590;29;20118;-91
2023/03/23 10:26:37;;;;;;;6.67;1.33;;;;;;;10.38;100.00;100323.53;4908084;29;20039;-92
2023/03/23 10:29:36;;;;;;;4.20;0.98;;;;;;;10.52;100.00;100329.13;4926606;29;20052;-92
2023/03/23 10:32:11;;;;;;;5.03;1.27;;;;;;;10.71;100.00;100334.75;4907871;29;20031;-92
2023/03/23 10:34:55;;;;;;;6.43;1.17;;;;;;;10.91;100.00;100349.97;4893842;29;20025;-91
2023/03/23 10:37:26;;;;;;;4.68;1.40;;;;;;;11.03;100.00;100348.91;4919386;29;20065;-94
2023/03/23 10:42:49;;;;;;;5.47;1.50;;;;;;;11.73;100.00;100349.94;5030335;23;20055;-92
2023/03/23 10:49:11;;;;;;;5.13;1.30;;;;;;;12.13;100.00;100342.75;4958240;29;20047;-93
2023/03/23 10:58:13;;;;;;;4.85;1.27;;;;;;;12.29;100.00;100342.63;4939516;29;20055;-92
2023/03/23 11:01:03;;;;;;;3.00;1.30;;;;;;;12.19;100.00;100344.31;4938683;29;20016;-91
2023/03/23 11:10:37;;;;;;;;;;;;;;;;;;;;;
2023/03/23 11:17:24;;;;;;;4.15;1.25;;;;;;;12.98;100.00;100292.22;4862873;29;20045;-94
2023/03/23 11:19:50;;;;;;;4.53;1.10;;;;;;;13.32;100.00;100307.41;4853081;29;20044;-93
2023/03/23 11:29:13;;;;;;;3.97;1.23;;;;;;;13.96;99.14;100344.00;4862045;29;20800;-93
2023/03/23 11:35:18;;;;;;;6.68;1.30;;;;;;;14.06;98.07;100319.59;4861994;29;20516;-93
2023/03/23 11:37:54;;;;;;;7.07;1.40;;;;;;;14.26;98.15;100358.06;4884200;29;20049;-92
2023/03/23 11:56:36;;;;;;;3.43;1.20;;;;;;;15.33;91.63;100366.47;4941539;29;20415;-95
2023/03/23 11:59:59;;;;;;;3.80;1.20;;;;;;;15.45;100.00;100350.56;4928364;29;20028;-94
2023/03/23 12:03:18;;;;;;;2.95;1.15;;;;;;;16.06;93.28;100342.25;4940585;28;20046;-94
2023/03/23 12:05:46;;;;;;;3.80;1.20;;;;;;;16.30;87.98;100352.72;4868717;29;20049;-94
2023/03/23 12:18:51;;;;;;;5.22;1.35;;;;;;;15.71;83.42;100304.09;5675206;23;20086;-94
2023/03/23 12:22:05;;;;;;;6.50;1.65;;;;;;;15.94;82.42;100344.66;4919051;29;20040;-93
2023/03/23 12:24:54;;;;;;;5.90;1.17;;;;;;;15.97;81.30;100352.16;4919183;29;20048;-95
2023/03/23 12:28:01;;;;;;;5.47;1.50;;;;;;;15.93;82.96;100345.78;4854191;29;20038;-95
2023/03/23 12:31:07;;;;;;;6.72;1.80;;;;;;;15.40;85.38;100304.78;4852035;29;20069;-95
2023/03/23 12:34:07;;;;;;;5.70;1.57;;;;;;;15.13;83.39;100317.22;4835285;29;20734;-94
2023/03/23 12:37:18;;;;;;;5.22;1.50;;;;;;;14.80;87.34;100323.50;4848377;29;20041;-96
2023/03/23 12:39:50;;;;;;;7.50;1.80;;;;;;;14.73;84.31;100315.00;4922346;29;20480;-95
2023/03/23 12:43:06;;;;;;;7.13;1.75;;;;;;;14.90;87.67;100308.19;4912093;29;20032;-95
2023/03/23 12:49:31;;;;;;;13.20;1.90;;;;;;;14.92;86.96;100293.34;4931635;29;20168;-95
2023/03/23 12:53:06;;;;;;;;;;;;;;;;;;;;;
2023/03/23 12:56:13;;;;;;;6.22;1.63;;;;;;;15.35;85.75;100294.06;4876200;29;20595;-95
2023/03/23 12:58:54;;;;;;;5.70;1.40;;;;;;;15.33;83.59;100266.63;4870911;29;20038;-94
2023/03/23 13:02:04;;;;;;;7.75;2.00;;;;;;;15.88;86.17;100281.84;4839405;29;20041;-94
2023/03/23 13:04:44;;;;;;;8.55;2.13;;;;;;;15.92;76.86;100271.22;4851966;29;20041;-95
2023/03/23 13:08:00;;;;;;;4.72;1.50;;;;;;;15.66;79.08;100274.50;4848824;29;20356;-95
2023/03/23 13:16:20;;;;;;;7.35;1.80;;;;;;;16.13;84.20;100307.44;4919210;29;20111;-93
2023/03/23 13:19:34;;;;;;;7.28;1.95;;;;;;;16.18;77.43;100266.78;4898134;29;20032;-93
2023/03/23 13:22:21;;;;;;;6.45;1.75;;;;;;;16.39;77.23;100304.13;4903055;29;20491;-95
2023/03/23 13:24:55;;;;;;;7.05;1.85;;;;;;;16.58;75.54;100295.00;4928132;29;20095;-95
2023/03/23 13:30:40;;;;;;;8.20;2.13;;;;;;;16.43;72.36;100269.13;4919584;29;20530;-95
2023/03/23 13:33:28;;;;;;;6.40;2.00;;;;;;;16.43;73.36;100264.50;4925464;29;20052;-94
2023/03/23 13:36:33;;;;;;;9.80;2.17;;;;;;;16.62;75.80;100315.69;4908184;29;20108;-94
2023/03/23 13:45:33;;;;;;;7.47;1.90;;;;;;;14.14;100.00;100288.50;4935921;29;20058;-92
2023/03/23 13:58:01;;;;;;;10.43;2.10;;;;;;;12.07;100.00;100307.06;4899680;29;20076;-90
2023/03/23 14:00:49;;;;;;;8.45;1.70;;;;;;;11.86;100.00;100284.91;4912210;29;20093;-91
2023/03/23 14:03:38;;;;;;;8.98;1.80;;;;;;;11.94;100.00;100324.59;4925126;29;20016;-91
2023/03/23 14:06:18;;;;;;;7.50;1.40;;;;;;;11.70;100.00;100313.72;4919067;29;20032;-90
2023/03/23 14:09:04;;;;;;;7.30;1.60;;;;;;;11.66;100.00;100294.72;4919218;29;20074;-91
2023/03/23 14:46:18;;;;;;;8.50;2.10;;;;;;;12.84;100.00;100237.56;4908728;29;20056;-93
2023/03/23 16:26:39;;;;;;;7.65;1.73;;;;;;;12.93;100.00;100229.66;5182258;23;20047;-93
2023/03/23 16:29:15;;;;;;;7.23;2.13;;;;;;;12.91;100.00;100226.44;4913573;29;20056;-93
2023/03/23 16:31:44;;;;;;;10.13;2.00;;;;;;;12.57;100.00;100196.72;4928223;29;20034;-92